الصفحة الرئيسية
METAR-TAF:

METAR-TAF

مطار :

Grand Junction, كولورادو, الولايات المتحدة

دائرة عرض: 39-08-02N, خط طول: 108-32-19W, ارتفاع: 1481 متر

مراقبة الطقس الحالي

تاريخ ووقت الإصدار 23 دقيقة قبل الساعة 15:53UTC
ريح 11 عقدة من الشرق/الجنوب الشرقي
درجة الحرارة 11°درجة مئوية
الرطوبة 28%
ضغط 1027 hPa
الرؤية: 16.1 كم
سماء صافية

METAR: KGJT 251553Z 12011KT 10SM CLR 11/M07 A3033 RMK AO2 SLP242 T01111067

زمن: 10:16 (16:16 UTC)

توقعات

تاريخ ووقت الإصدار 4ساعات و 56 دقيقة قبل الساعة 11:20UTC
التوقعات صالحة من25 الساعة 12 UTC إلى 26 الساعة 12 UTC
ريح 5 عقدة من الشرق
الرؤية: 10 كم
سماء صافية
من 25 الساعة 1700 UTC
ريح 4 عقدة من الجنوب الشرقي
الرؤية: 10 كم
سماء صافية
من 25 الساعة 1900 UTC
ريح 4 عقدة من الجنوب/الجنوب الغربي
الرؤية: 10 كم
سماء صافية
من 25 الساعة 2100 UTC
ريح 4 عقدة من الغرب
الرؤية: 10 كم
سماء صافية
من 26 الساعة 0800 UTC
ريح 4 عقدة من الشمال الشرقي
الرؤية: 10 كم
سماء صافية

TAF: KGJT 251120Z 2512/2612 08005KT P6SM SKC FM251700 14004KT P6SM SKC FM251900 21004KT P6SM SKC FM252100 28004KT P6SM SKC FM260800 05004KT P6SM SKC

أرصاد الطقس والتوقعات من أكثر من 4000 مطار (تقارير الطقس للمطار METAR والتنبؤ بالطقس بالمطارTAF).

المحطات المتاحة هي النقط الصفراء والحمراء على الخريطة.

حرك المؤشر فوق النقطة لمعرفة اسم المحطة.

ثم انقر لمعرفة أرصاد وتوقعات الطقس.

لتغيير الخارطة: اضغط على الأزرار الخضراء مع رمز الصليب الأسود للتكبير. على الزر الأخضر مع شرطة للتصغير، أو على الأسهم الخضراء للخرائط المجاورة.


METAR-TAF: